createdAt,value
2023-01-13T00:00:44.144Z,0.77
2023-01-13T00:01:41.435Z,0.78
2023-01-13T00:02:38.895Z,0.80
2023-01-13T00:03:36.954Z,0.68
2023-01-13T00:04:34.451Z,0.66
2023-01-13T00:05:31.773Z,0.56
2023-01-13T00:06:29.493Z,0.71
2023-01-13T00:07:27.702Z,0.91
2023-01-13T00:08:25.102Z,0.67
2023-01-13T00:09:22.448Z,0.72
2023-01-13T00:10:19.784Z,0.66
2023-01-13T00:11:17.301Z,0.64
2023-01-13T00:12:14.632Z,0.60
2023-01-13T00:13:11.889Z,0.52
2023-01-13T00:14:09.299Z,0.64
2023-01-13T00:15:07.134Z,0.64
2023-01-13T00:16:05.868Z,0.66
2023-01-13T00:17:04.374Z,0.73
2023-01-13T00:18:01.943Z,0.71
2023-01-13T00:18:59.206Z,0.61
2023-01-13T00:19:57.004Z,0.76
2023-01-13T00:21:05.078Z,0.92
2023-01-13T00:22:02.424Z,0.79
2023-01-13T00:23:00.231Z,0.71
2023-01-13T00:23:57.510Z,0.74
2023-01-13T00:24:54.785Z,0.69
2023-01-13T00:25:54.849Z,0.76
2023-01-13T00:26:52.697Z,0.64
2023-01-13T00:27:50.005Z,0.76
2023-01-13T00:28:48.003Z,0.73
2023-01-13T00:29:45.306Z,0.81
2023-01-13T00:30:42.550Z,0.77
2023-01-13T00:31:39.880Z,0.92
2023-01-13T00:32:37.136Z,0.55
2023-01-13T00:33:34.615Z,0.67
2023-01-13T00:34:31.970Z,0.69
2023-01-13T00:35:29.315Z,0.67
2023-01-13T00:36:26.819Z,0.74
2023-01-13T00:37:24.203Z,0.66
2023-01-13T00:38:21.499Z,0.60
2023-01-13T00:39:18.781Z,0.69
2023-01-13T00:40:16.813Z,0.71
2023-01-13T00:41:16.178Z,0.81
2023-01-13T00:42:31.796Z,0.99
2023-01-13T00:43:30.646Z,0.81
2023-01-13T00:44:27.900Z,0.75
2023-01-13T00:45:25.281Z,0.85
2023-01-13T00:46:23.026Z,2.37
2023-01-13T00:47:20.398Z,4.09
2023-01-13T00:48:19.351Z,5.36
2023-01-13T00:49:16.701Z,6.27
2023-01-13T00:50:14.025Z,6.54
2023-01-13T00:51:18.866Z,6.53
2023-01-13T00:52:16.208Z,6.28
2023-01-13T00:53:14.825Z,6.09
2023-01-13T00:54:12.147Z,5.24
2023-01-13T00:55:09.578Z,5.84
2023-01-13T00:56:09.755Z,6.54
2023-01-13T00:57:07.491Z,5.93
2023-01-13T00:58:04.896Z,5.12
2023-01-13T00:59:04.110Z,3.46
2023-01-13T01:00:01.438Z,3.04
2023-01-13T01:01:02.524Z,2.40
2023-01-13T01:02:00.069Z,2.58
2023-01-13T01:02:57.888Z,2.77
2023-01-13T01:03:55.240Z,2.07
2023-01-13T01:04:52.567Z,2.37
2023-01-13T01:05:49.863Z,2.08
2023-01-13T01:06:47.215Z,1.40
2023-01-13T01:07:44.491Z,0.99
2023-01-13T01:08:43.237Z,1.17
2023-01-13T01:09:40.515Z,1.59
2023-01-13T01:10:37.890Z,1.54
2023-01-13T01:11:37.923Z,0.87
2023-01-13T01:12:35.212Z,0.83
2023-01-13T01:13:33.299Z,1.00
2023-01-13T01:14:30.612Z,1.07
2023-01-13T01:15:27.918Z,0.93
2023-01-13T01:16:26.444Z,1.00
2023-01-13T01:17:23.896Z,1.17
2023-01-13T01:18:21.167Z,1.41
2023-01-13T01:19:18.714Z,1.59
2023-01-13T01:20:16.180Z,2.48
2023-01-13T01:21:14.413Z,2.51
2023-01-13T01:22:11.773Z,2.52
2023-01-13T01:23:09.047Z,2.72
2023-01-13T01:24:06.563Z,2.60
2023-01-13T01:25:03.942Z,2.88
2023-01-13T01:26:01.888Z,2.87
2023-01-13T01:26:59.332Z,3.53
2023-01-13T01:27:56.627Z,4.47
2023-01-13T01:28:54.056Z,5.23
2023-01-13T01:29:51.764Z,6.62
2023-01-13T01:30:49.055Z,8.11
2023-01-13T01:31:46.627Z,8.35
2023-01-13T01:32:44.014Z,8.52
2023-01-13T01:33:41.402Z,8.52
2023-01-13T01:34:39.262Z,8.80
2023-01-13T01:35:39.712Z,9.70
2023-01-13T01:36:37.128Z,6.66
2023-01-13T01:37:34.394Z,6.02
2023-01-13T01:38:31.703Z,6.27
2023-01-13T01:39:29.041Z,4.36
2023-01-13T01:40:27.110Z,3.13
2023-01-13T01:41:26.397Z,3.03
2023-01-13T01:42:42.143Z,1.64
2023-01-13T01:44:00.056Z,1.02
2023-01-13T01:45:02.401Z,1.02
2023-01-13T01:45:59.697Z,0.89
2023-01-13T01:46:57.761Z,1.03
2023-01-13T01:48:02.100Z,1.16
2023-01-13T01:49:03.686Z,1.11
2023-01-13T01:50:03.260Z,0.99
2023-01-13T01:51:02.116Z,0.98
2023-01-13T01:52:03.395Z,1.01
2023-01-13T01:53:06.306Z,1.06
2023-01-13T01:54:07.033Z,1.19
2023-01-13T01:55:16.356Z,1.11
2023-01-13T01:56:13.860Z,1.12
2023-01-13T01:57:15.950Z,1.18
2023-01-13T01:58:28.340Z,1.13
2023-01-13T01:59:28.265Z,1.17
2023-01-13T02:00:27.919Z,1.15
2023-01-13T02:01:25.512Z,1.23
2023-01-13T02:02:23.438Z,0.92
2023-01-13T02:03:21.273Z,1.30
2023-01-13T02:04:25.979Z,1.28
2023-01-13T02:05:23.339Z,1.19
2023-01-13T02:06:20.682Z,1.33
2023-01-13T02:07:23.178Z,1.14
2023-01-13T02:08:20.802Z,1.34
2023-01-13T02:09:18.238Z,1.36
2023-01-13T02:10:18.444Z,1.33
2023-01-13T02:11:50.799Z,1.31
2023-01-13T02:12:49.906Z,1.35
2023-01-13T02:13:47.240Z,1.47
2023-01-13T02:14:45.541Z,1.44
2023-01-13T02:15:57.844Z,1.47
2023-01-13T02:17:04.078Z,1.34
2023-01-13T02:18:01.359Z,1.31
2023-01-13T02:19:28.514Z,1.54
2023-01-13T02:20:50.803Z,1.62
2023-01-13T02:21:48.135Z,1.50
2023-01-13T02:22:57.263Z,1.30
2023-01-13T02:24:32.134Z,1.30
2023-01-13T02:25:46.911Z,1.47
2023-01-13T02:27:02.902Z,1.35
2023-01-13T02:28:15.886Z,1.36
2023-01-13T02:29:31.656Z,1.23
2023-01-13T02:30:47.327Z,1.45
2023-01-13T02:31:48.874Z,1.42
2023-01-13T02:32:58.271Z,1.53
2023-01-13T02:33:58.323Z,1.37
2023-01-13T02:35:04.122Z,1.32
2023-01-13T02:36:06.218Z,1.41
2023-01-13T02:37:12.662Z,1.40
2023-01-13T02:38:13.257Z,1.69
2023-01-13T02:39:15.568Z,1.43
2023-01-13T02:40:29.944Z,1.58
2023-01-13T02:42:00.973Z,1.40
2023-01-13T02:43:24.208Z,1.38
2023-01-13T02:44:27.079Z,1.68
2023-01-13T02:45:34.981Z,1.49
2023-01-13T02:46:52.582Z,1.50
2023-01-13T02:47:55.760Z,1.79
2023-01-13T02:48:57.662Z,1.49
2023-01-13T02:50:05.068Z,1.73
2023-01-13T02:51:09.387Z,1.51
2023-01-13T02:52:16.630Z,1.53
2023-01-13T02:53:19.297Z,1.72
2023-01-13T02:54:21.730Z,1.43
2023-01-13T02:55:22.988Z,1.57
2023-01-13T02:56:23.263Z,1.54
2023-01-13T02:57:22.496Z,1.94
2023-01-13T02:58:24.166Z,1.71
2023-01-13T02:59:22.356Z,1.66
2023-01-13T03:00:20.853Z,1.54
2023-01-13T03:01:18.297Z,1.70
2023-01-13T03:02:20.125Z,1.76
2023-01-13T03:03:17.938Z,1.79
2023-01-13T03:04:35.257Z,1.84
2023-01-13T03:05:33.798Z,1.84
2023-01-13T03:06:31.125Z,1.94
2023-01-13T03:07:28.401Z,1.98
2023-01-13T03:08:25.716Z,2.00
2023-01-13T03:09:31.184Z,1.90
2023-01-13T03:10:34.919Z,1.92
2023-01-13T03:11:44.490Z,1.75
2023-01-13T03:12:57.953Z,1.67
2023-01-13T03:13:55.270Z,1.93
2023-01-13T03:15:02.611Z,2.00
2023-01-13T03:16:09.078Z,1.77
2023-01-13T03:17:25.216Z,1.88
2023-01-13T03:18:36.532Z,1.75
2023-01-13T03:19:43.023Z,1.55
2023-01-13T03:20:48.331Z,1.63
2023-01-13T03:21:51.663Z,1.51
2023-01-13T03:22:58.921Z,1.72
2023-01-13T03:24:03.726Z,1.59
2023-01-13T03:25:09.954Z,1.65
2023-01-13T03:26:17.872Z,1.68
2023-01-13T03:27:15.130Z,1.77
2023-01-13T03:28:21.723Z,1.74
2023-01-13T03:29:22.974Z,1.61
2023-01-13T03:30:36.296Z,1.77
2023-01-13T03:31:38.169Z,1.77
2023-01-13T03:32:49.284Z,1.64
2023-01-13T03:33:58.684Z,1.73
2023-01-13T03:35:01.134Z,1.58
2023-01-13T03:36:02.501Z,1.65
2023-01-13T03:37:03.470Z,1.67
2023-01-13T03:38:13.889Z,1.53
2023-01-13T03:39:16.255Z,1.70
2023-01-13T03:40:25.490Z,1.59
2023-01-13T03:41:27.681Z,1.47
2023-01-13T03:42:27.182Z,1.73
2023-01-13T03:43:47.849Z,1.59
2023-01-13T03:44:49.465Z,1.62
2023-01-13T03:45:50.106Z,1.86
2023-01-13T03:46:56.344Z,1.80
2023-01-13T03:47:58.087Z,1.48
2023-01-13T03:48:58.691Z,1.66
2023-01-13T03:50:07.942Z,1.59
2023-01-13T03:51:07.866Z,1.55
2023-01-13T03:52:08.019Z,1.48
2023-01-13T03:53:11.197Z,1.66
2023-01-13T03:54:12.861Z,1.64
2023-01-13T03:55:16.135Z,1.65
2023-01-13T03:56:20.630Z,1.57
2023-01-13T03:57:21.864Z,1.77
2023-01-13T03:58:23.400Z,1.77
2023-01-13T03:59:24.157Z,1.94
2023-01-13T04:00:26.195Z,1.66
2023-01-13T04:01:35.719Z,1.72
2023-01-13T04:02:40.016Z,1.89
2023-01-13T04:03:50.990Z,1.54
2023-01-13T04:05:00.496Z,1.88
2023-01-13T04:06:05.220Z,1.74
2023-01-13T04:07:05.366Z,1.49
2023-01-13T04:08:14.893Z,1.65
2023-01-13T04:09:18.580Z,1.74
2023-01-13T04:10:19.840Z,1.58
2023-01-13T04:11:21.876Z,1.76
2023-01-13T04:12:25.727Z,1.64
2023-01-13T04:13:27.270Z,1.75
2023-01-13T04:14:26.819Z,2.01
2023-01-13T04:15:28.039Z,2.00
2023-01-13T04:16:25.949Z,2.16
2023-01-13T04:17:24.741Z,2.86
2023-01-13T04:18:24.479Z,4.53
2023-01-13T04:19:22.299Z,5.44
2023-01-13T04:20:19.935Z,5.76
2023-01-13T04:21:17.297Z,5.78
2023-01-13T04:22:14.663Z,5.75
2023-01-13T04:23:13.626Z,5.58
2023-01-13T04:24:11.040Z,5.49
2023-01-13T04:25:09.131Z,5.47
2023-01-13T04:26:06.487Z,5.72
2023-01-13T04:27:04.105Z,6.02
2023-01-13T04:28:01.536Z,5.95
2023-01-13T04:28:58.831Z,6.09
2023-01-13T04:29:56.179Z,6.03
2023-01-13T04:30:53.742Z,5.73
2023-01-13T04:31:51.142Z,3.53
2023-01-13T04:32:48.420Z,4.64
2023-01-13T04:33:45.740Z,4.47
2023-01-13T04:34:43.038Z,2.67
2023-01-13T04:35:41.026Z,2.68
2023-01-13T04:36:38.440Z,3.62
2023-01-13T04:37:35.825Z,2.62
2023-01-13T04:38:33.196Z,2.54
2023-01-13T04:39:30.638Z,2.71
2023-01-13T04:40:27.970Z,3.15
2023-01-13T04:41:25.304Z,2.93
2023-01-13T04:42:22.656Z,2.93
2023-01-13T04:43:20.070Z,2.42
2023-01-13T04:44:17.447Z,2.04
2023-01-13T04:45:15.023Z,2.06
2023-01-13T04:46:12.392Z,1.92
2023-01-13T04:47:09.690Z,1.75
2023-01-13T04:48:07.031Z,1.80
2023-01-13T04:49:04.433Z,2.04
2023-01-13T04:50:01.783Z,2.11
2023-01-13T04:50:59.082Z,2.10
2023-01-13T04:51:56.481Z,2.09
2023-01-13T04:52:54.857Z,2.05
2023-01-13T04:53:52.511Z,1.90
2023-01-13T04:54:49.851Z,1.94
2023-01-13T04:55:47.963Z,1.97
2023-01-13T04:56:45.339Z,3.21
2023-01-13T04:57:44.190Z,3.54
2023-01-13T04:58:41.523Z,3.86
2023-01-13T04:59:38.868Z,3.99
2023-01-13T05:00:36.963Z,4.10
2023-01-13T05:01:34.438Z,4.31
2023-01-13T05:02:32.010Z,4.44
2023-01-13T05:03:29.308Z,4.86
2023-01-13T05:04:26.764Z,4.82
2023-01-13T05:05:24.153Z,4.70
2023-01-13T05:06:21.493Z,3.54
2023-01-13T05:07:18.958Z,3.02
2023-01-13T05:08:16.319Z,2.19
2023-01-13T05:09:15.654Z,1.96
2023-01-13T05:10:13.303Z,1.96
2023-01-13T05:11:29.204Z,1.66
2023-01-13T05:12:45.598Z,1.65
2023-01-13T05:14:01.408Z,1.82
2023-01-13T05:15:17.751Z,2.12
2023-01-13T05:16:33.571Z,2.06
2023-01-13T05:17:31.845Z,2.05
2023-01-13T05:18:30.907Z,2.40
2023-01-13T05:19:29.086Z,2.09
2023-01-13T05:20:26.868Z,2.15
2023-01-13T05:21:56.388Z,2.40
2023-01-13T05:23:12.415Z,2.74
2023-01-13T05:24:28.234Z,2.44
2023-01-13T05:25:26.996Z,2.60
2023-01-13T05:26:24.466Z,2.64
2023-01-13T05:27:21.894Z,2.75
2023-01-13T05:28:19.266Z,2.48
2023-01-13T05:29:16.627Z,2.77
2023-01-13T05:30:14.054Z,2.81
2023-01-13T05:31:12.127Z,2.68
2023-01-13T05:32:09.528Z,2.80
2023-01-13T05:33:06.846Z,2.77
2023-01-13T05:34:04.216Z,3.08
2023-01-13T05:35:01.564Z,2.74
2023-01-13T05:36:01.977Z,2.87
2023-01-13T05:36:59.354Z,2.58
2023-01-13T05:37:56.719Z,2.74
2023-01-13T05:38:54.103Z,2.85
2023-01-13T05:40:10.366Z,2.44
2023-01-13T05:41:26.597Z,2.60
2023-01-13T05:42:44.341Z,2.44
2023-01-13T05:43:43.925Z,2.38
2023-01-13T05:44:41.348Z,2.29
2023-01-13T05:45:38.726Z,2.12
2023-01-13T05:46:36.083Z,2.39
2023-01-13T05:47:33.511Z,2.36
2023-01-13T05:48:35.293Z,2.54
2023-01-13T05:49:32.569Z,3.13
2023-01-13T05:50:29.924Z,2.92
2023-01-13T05:51:27.418Z,3.02
2023-01-13T05:52:24.940Z,4.15
2023-01-13T05:53:22.701Z,5.29
2023-01-13T05:54:19.993Z,5.40
2023-01-13T05:55:17.333Z,3.90
2023-01-13T05:56:14.852Z,4.18
2023-01-13T05:57:12.170Z,3.80
2023-01-13T05:58:10.614Z,3.34
2023-01-13T05:59:08.171Z,3.15
2023-01-13T06:00:05.778Z,3.80
2023-01-13T06:01:08.134Z,4.18
2023-01-13T06:02:05.573Z,3.78
2023-01-13T06:03:03.040Z,3.22
2023-01-13T06:04:00.517Z,3.24
2023-01-13T06:04:57.877Z,3.25
2023-01-13T06:06:01.546Z,3.14
2023-01-13T06:06:59.037Z,3.24
2023-01-13T06:07:57.827Z,3.06
2023-01-13T06:08:55.130Z,3.27
2023-01-13T06:09:52.441Z,2.92
2023-01-13T06:10:49.746Z,3.22
2023-01-13T06:11:47.046Z,2.81
2023-01-13T06:12:44.591Z,3.08
2023-01-13T06:13:42.193Z,2.94
2023-01-13T06:14:42.553Z,2.79
2023-01-13T06:15:39.928Z,2.81
2023-01-13T06:16:37.615Z,2.45
2023-01-13T06:17:34.964Z,2.55
2023-01-13T06:18:32.292Z,2.19
2023-01-13T06:19:29.585Z,2.08
2023-01-13T06:20:26.985Z,2.64
2023-01-13T06:21:24.288Z,2.61
2023-01-13T06:22:21.568Z,2.60
2023-01-13T06:23:19.131Z,2.50
2023-01-13T06:24:16.457Z,2.70
2023-01-13T06:25:16.540Z,2.82
2023-01-13T06:26:18.295Z,2.70
2023-01-13T06:27:17.299Z,2.61
2023-01-13T06:28:14.634Z,2.64
2023-01-13T06:29:15.067Z,2.53
2023-01-13T06:30:12.567Z,2.43
2023-01-13T06:31:10.918Z,2.19
2023-01-13T06:32:13.170Z,2.44
2023-01-13T06:33:13.923Z,1.87
2023-01-13T06:34:14.074Z,1.79
2023-01-13T06:35:14.044Z,1.72
2023-01-13T06:36:17.827Z,1.84
2023-01-13T06:37:20.025Z,1.87
2023-01-13T06:38:19.837Z,1.95
2023-01-13T06:39:20.363Z,1.81
2023-01-13T06:40:18.280Z,1.88
2023-01-13T06:41:16.859Z,1.79
2023-01-13T06:42:33.677Z,1.72
2023-01-13T06:43:31.015Z,1.95
2023-01-13T06:44:29.124Z,1.86
2023-01-13T06:45:29.649Z,1.71
2023-01-13T06:46:27.060Z,1.64
2023-01-13T06:47:24.504Z,1.78
2023-01-13T06:48:27.932Z,1.59
2023-01-13T06:49:25.321Z,1.74
2023-01-13T06:50:22.797Z,1.86
2023-01-13T06:51:20.047Z,1.65
2023-01-13T06:52:17.377Z,1.65
2023-01-13T06:53:14.772Z,1.52
2023-01-13T06:54:12.402Z,1.65
2023-01-13T06:55:09.745Z,1.67
2023-01-13T06:56:07.335Z,1.80
2023-01-13T06:57:04.739Z,1.72
2023-01-13T06:58:02.278Z,2.46
2023-01-13T06:58:59.633Z,9.43
2023-01-13T06:59:56.970Z,5.21
2023-01-13T07:00:54.463Z,2.87
2023-01-13T07:01:51.905Z,2.52
2023-01-13T07:02:52.898Z,2.96
2023-01-13T07:03:50.277Z,5.20
2023-01-13T07:04:47.682Z,3.78
2023-01-13T07:05:51.482Z,2.94
2023-01-13T07:06:48.850Z,2.68
2023-01-13T07:07:46.250Z,2.03
2023-01-13T07:08:43.575Z,2.23
2023-01-13T07:09:40.867Z,2.11
2023-01-13T07:10:38.346Z,2.11
2023-01-13T07:11:35.676Z,3.47
2023-01-13T07:12:52.953Z,7.59
2023-01-13T07:14:08.741Z,6.20
2023-01-13T07:15:18.393Z,5.49
2023-01-13T07:16:15.800Z,6.04
2023-01-13T07:17:13.129Z,20.66
2023-01-13T07:18:10.468Z,26.43
2023-01-13T07:19:07.818Z,3.93
2023-01-13T07:20:05.528Z,4.22
2023-01-13T07:21:04.569Z,6.59
2023-01-13T07:22:01.851Z,6.05
2023-01-13T07:22:59.169Z,6.97
2023-01-13T07:23:56.509Z,7.24
2023-01-13T07:24:53.839Z,6.22
2023-01-13T07:25:51.213Z,8.21
2023-01-13T07:26:48.558Z,7.37
2023-01-13T07:27:45.973Z,4.35
2023-01-13T07:28:43.341Z,9.09
2023-01-13T07:29:40.717Z,7.75
2023-01-13T07:30:38.219Z,4.97
2023-01-13T07:31:35.626Z,3.14
2023-01-13T07:32:33.551Z,3.21
2023-01-13T07:33:33.592Z,2.19
2023-01-13T07:34:30.931Z,2.17
2023-01-13T07:35:28.235Z,2.10
2023-01-13T07:36:25.553Z,2.32
2023-01-13T07:37:22.940Z,8.04
2023-01-13T07:38:20.200Z,5.19
2023-01-13T07:39:17.515Z,6.25
2023-01-13T07:40:14.896Z,6.22
2023-01-13T07:41:33.680Z,5.33
2023-01-13T07:42:49.502Z,13.70
2023-01-13T07:43:47.017Z,9.89
2023-01-13T07:44:44.355Z,7.32
2023-01-13T07:45:41.702Z,6.59
2023-01-13T07:46:39.718Z,6.11
2023-01-13T07:47:37.010Z,6.10
2023-01-13T07:48:35.326Z,5.93
2023-01-13T07:49:33.314Z,5.99
2023-01-13T07:50:30.684Z,5.80
2023-01-13T07:51:28.047Z,5.48
2023-01-13T07:52:25.515Z,4.95
2023-01-13T07:53:24.920Z,4.71
2023-01-13T07:54:35.210Z,4.71
2023-01-13T07:55:41.666Z,4.59
2023-01-13T07:56:39.116Z,5.06
2023-01-13T07:57:36.439Z,4.96
2023-01-13T07:58:35.063Z,4.74
2023-01-13T07:59:32.465Z,5.09
2023-01-13T08:00:29.873Z,5.34
2023-01-13T08:01:28.208Z,6.72
2023-01-13T08:02:25.774Z,8.69
2023-01-13T08:03:23.379Z,9.92
2023-01-13T08:04:20.737Z,9.97
2023-01-13T08:05:18.327Z,10.23
2023-01-13T08:06:15.711Z,9.13
2023-01-13T08:07:13.241Z,7.70
2023-01-13T08:08:10.645Z,7.70
2023-01-13T08:09:08.660Z,8.54
2023-01-13T08:10:06.745Z,7.89
2023-01-13T08:11:05.027Z,7.11
2023-01-13T08:12:20.947Z,7.08
2023-01-13T08:13:22.583Z,6.59
2023-01-13T08:14:20.026Z,6.15
2023-01-13T08:15:17.404Z,6.03
2023-01-13T08:16:15.402Z,5.50
2023-01-13T08:17:12.851Z,3.95
2023-01-13T08:18:10.434Z,4.07
2023-01-13T08:19:07.776Z,4.55
2023-01-13T08:20:05.263Z,5.27
2023-01-13T08:21:07.114Z,5.43
2023-01-13T08:22:04.414Z,6.95
2023-01-13T08:23:01.824Z,7.41
2023-01-13T08:23:59.175Z,7.03
2023-01-13T08:24:56.946Z,6.62
2023-01-13T08:25:54.375Z,7.24
2023-01-13T08:26:51.900Z,6.53
2023-01-13T08:27:49.727Z,6.26
2023-01-13T08:28:47.093Z,5.44
2023-01-13T08:29:44.449Z,5.49
2023-01-13T08:30:42.058Z,5.07
2023-01-13T08:31:39.390Z,4.41
2023-01-13T08:32:36.770Z,4.89
2023-01-13T08:33:34.202Z,5.16
2023-01-13T08:34:31.546Z,4.71
2023-01-13T08:35:28.925Z,4.71
2023-01-13T08:36:26.297Z,5.32
2023-01-13T08:37:23.649Z,4.67
2023-01-13T08:38:21.049Z,4.61
2023-01-13T08:39:18.744Z,5.10
2023-01-13T08:40:16.648Z,4.43
2023-01-13T08:41:15.853Z,5.92
2023-01-13T08:42:13.181Z,6.16
2023-01-13T08:43:10.869Z,5.49
2023-01-13T08:44:09.320Z,6.06
2023-01-13T08:45:07.661Z,5.39
2023-01-13T08:46:05.236Z,5.53
2023-01-13T08:47:02.766Z,5.30
2023-01-13T08:48:00.178Z,4.86
2023-01-13T08:48:57.504Z,4.60
2023-01-13T08:49:55.083Z,4.37
2023-01-13T08:50:53.302Z,4.42
2023-01-13T08:51:51.018Z,4.78
2023-01-13T08:52:48.451Z,4.42
2023-01-13T08:53:45.852Z,4.27
2023-01-13T08:54:43.307Z,4.37
2023-01-13T08:55:40.786Z,4.08
2023-01-13T08:56:39.083Z,4.01
2023-01-13T08:57:36.460Z,4.17
2023-01-13T08:58:33.842Z,3.82
2023-01-13T08:59:31.761Z,4.06
2023-01-13T09:00:29.213Z,3.51
2023-01-13T09:01:27.135Z,3.50
2023-01-13T09:02:25.645Z,3.40
2023-01-13T09:03:22.969Z,3.12
2023-01-13T09:04:22.847Z,3.50
2023-01-13T09:05:20.233Z,3.31
2023-01-13T09:06:17.605Z,3.16
2023-01-13T09:07:15.519Z,2.95
2023-01-13T09:08:13.049Z,2.88
2023-01-13T09:09:10.365Z,3.11
2023-01-13T09:10:08.372Z,3.35
2023-01-13T09:11:26.234Z,3.35
2023-01-13T09:12:42.226Z,3.32
2023-01-13T09:13:39.728Z,3.25
2023-01-13T09:14:38.131Z,3.13
2023-01-13T09:15:35.502Z,3.32
2023-01-13T09:16:32.829Z,2.96
2023-01-13T09:17:30.191Z,2.99
2023-01-13T09:18:28.845Z,3.13
2023-01-13T09:19:26.617Z,3.21
2023-01-13T09:20:23.947Z,3.01
2023-01-13T09:21:22.313Z,2.77
2023-01-13T09:22:20.396Z,2.71
2023-01-13T09:23:17.783Z,3.29
2023-01-13T09:24:15.164Z,3.17
2023-01-13T09:25:12.867Z,3.08
2023-01-13T09:26:11.299Z,3.24
2023-01-13T09:27:09.753Z,3.17
2023-01-13T09:28:08.619Z,3.33
2023-01-13T09:29:06.418Z,3.06
2023-01-13T09:30:04.172Z,2.98
2023-01-13T09:31:01.507Z,3.09
2023-01-13T09:31:58.969Z,3.13
2023-01-13T09:33:18.343Z,3.13
2023-01-13T09:34:38.726Z,3.11
2023-01-13T09:35:36.414Z,4.69
2023-01-13T09:36:33.764Z,3.70
2023-01-13T09:37:34.231Z,2.79
2023-01-13T09:38:31.750Z,2.91
2023-01-13T09:39:29.291Z,2.74
2023-01-13T09:40:26.963Z,2.86
2023-01-13T09:41:45.150Z,2.87
2023-01-13T09:43:11.797Z,2.84
2023-01-13T09:44:16.844Z,2.46
2023-01-13T09:45:22.077Z,2.46
2023-01-13T09:46:44.042Z,2.52
2023-01-13T09:47:55.981Z,2.57
2023-01-13T09:48:54.927Z,2.72
2023-01-13T09:49:55.003Z,2.67
2023-01-13T09:51:16.945Z,2.62
2023-01-13T09:52:19.454Z,2.46
2023-01-13T09:53:21.598Z,2.85
2023-01-13T09:54:20.197Z,2.67
2023-01-13T09:55:30.039Z,2.86
2023-01-13T09:56:27.391Z,2.94
2023-01-13T09:57:27.902Z,2.93
2023-01-13T09:58:25.373Z,3.15
2023-01-13T09:59:24.026Z,3.03
2023-01-13T10:00:21.359Z,3.69
2023-01-13T10:01:39.324Z,4.30
2023-01-13T10:02:55.136Z,4.73
2023-01-13T10:03:53.619Z,5.32
2023-01-13T10:05:03.138Z,6.52
2023-01-13T10:06:21.092Z,6.90
2023-01-13T10:07:18.428Z,6.85
2023-01-13T10:08:36.364Z,6.66
2023-01-13T10:09:39.675Z,7.25
2023-01-13T10:10:41.876Z,6.56
2023-01-13T10:12:02.222Z,6.49
2023-01-13T10:13:14.494Z,5.87
2023-01-13T10:14:19.735Z,3.94
2023-01-13T10:15:20.493Z,4.09
2023-01-13T10:16:30.964Z,4.31
2023-01-13T10:17:45.845Z,5.43
2023-01-13T10:18:58.306Z,5.32
2023-01-13T10:20:08.312Z,4.53
2023-01-13T10:21:24.183Z,8.01
2023-01-13T10:22:24.353Z,6.11
2023-01-13T10:23:44.545Z,3.98
2023-01-13T10:25:03.081Z,5.44
2023-01-13T10:26:24.210Z,6.22
2023-01-13T10:27:21.613Z,4.52
2023-01-13T10:28:19.624Z,3.09
2023-01-13T10:29:27.926Z,2.90
2023-01-13T10:30:31.287Z,2.33
2023-01-13T10:31:28.815Z,3.57
2023-01-13T10:32:26.247Z,5.21
2023-01-13T10:33:28.139Z,4.91
2023-01-13T10:34:26.730Z,4.75
2023-01-13T10:35:43.923Z,4.51
2023-01-13T10:36:49.243Z,3.41
2023-01-13T10:37:56.274Z,5.98
2023-01-13T10:38:57.941Z,7.81
2023-01-13T10:39:56.625Z,8.01
2023-01-13T10:40:56.316Z,8.32
2023-01-13T10:42:06.915Z,8.11
2023-01-13T10:43:06.602Z,5.61
2023-01-13T10:44:07.702Z,3.74
2023-01-13T10:45:06.235Z,4.54
2023-01-13T10:46:05.799Z,4.18
2023-01-13T10:47:03.227Z,4.68
2023-01-13T10:48:06.043Z,5.64
2023-01-13T10:49:19.452Z,4.13
2023-01-13T10:50:22.903Z,6.16
2023-01-13T10:51:38.354Z,4.79
2023-01-13T10:52:39.470Z,4.76
2023-01-13T10:53:45.123Z,5.00
2023-01-13T10:54:51.718Z,5.81
2023-01-13T10:56:00.055Z,5.57
2023-01-13T10:57:27.072Z,4.65
2023-01-13T10:58:25.452Z,3.02
2023-01-13T10:59:24.239Z,3.71
2023-01-13T11:00:33.828Z,2.92
2023-01-13T11:01:31.598Z,2.24
2023-01-13T11:02:30.931Z,1.77
2023-01-13T11:03:36.541Z,2.17
2023-01-13T11:04:42.997Z,2.20
2023-01-13T11:05:40.319Z,1.92
2023-01-13T11:06:45.222Z,1.79
2023-01-13T11:07:54.258Z,1.93
2023-01-13T11:08:55.217Z,1.81
2023-01-13T11:10:10.757Z,1.81
2023-01-13T11:11:26.424Z,1.51
2023-01-13T11:12:43.874Z,2.44
2023-01-13T11:14:03.770Z,2.21
2023-01-13T11:15:05.073Z,1.86
2023-01-13T11:16:16.470Z,1.89
2023-01-13T11:17:13.793Z,1.72
2023-01-13T11:18:19.573Z,1.46
2023-01-13T11:19:20.473Z,1.44
2023-01-13T11:20:23.633Z,1.96
2023-01-13T11:21:23.304Z,2.04
2023-01-13T11:22:25.415Z,2.09
2023-01-13T11:23:45.444Z,1.91
2023-01-13T11:24:46.380Z,1.61
2023-01-13T11:25:46.949Z,1.25
2023-01-13T11:26:48.396Z,1.33
2023-01-13T11:27:48.499Z,2.16
2023-01-13T11:29:05.949Z,2.47
2023-01-13T11:30:15.196Z,3.02
2023-01-13T11:31:35.281Z,2.76
2023-01-13T11:32:39.471Z,3.08
2023-01-13T11:33:54.761Z,3.04
2023-01-13T11:34:57.095Z,2.65
2023-01-13T11:36:12.177Z,2.83
2023-01-13T11:37:25.472Z,2.70
2023-01-13T11:38:38.463Z,2.82
2023-01-13T11:39:47.907Z,2.46
2023-01-13T11:40:50.810Z,2.44
2023-01-13T11:42:12.767Z,2.45
2023-01-13T11:43:15.963Z,2.39
2023-01-13T11:44:20.273Z,2.47
2023-01-13T11:45:22.589Z,2.25
2023-01-13T11:46:23.725Z,2.28
2023-01-13T11:47:23.076Z,2.77
2023-01-13T11:48:22.863Z,2.43
2023-01-13T11:49:24.480Z,2.73
2023-01-13T11:50:29.624Z,2.93
2023-01-13T11:51:35.295Z,3.32
2023-01-13T11:52:51.065Z,3.91
2023-01-13T11:53:49.019Z,4.37
2023-01-13T11:55:01.371Z,3.56
2023-01-13T11:56:17.266Z,3.22
2023-01-13T11:57:44.083Z,2.96
2023-01-13T11:58:50.615Z,2.86
2023-01-13T11:59:51.330Z,3.01
2023-01-13T12:00:48.610Z,3.01
2023-01-13T12:01:57.697Z,3.10
2023-01-13T12:03:22.243Z,2.82
2023-01-13T12:04:19.612Z,2.30
2023-01-13T12:05:19.631Z,2.20
2023-01-13T12:06:26.581Z,2.24
2023-01-13T12:07:42.676Z,1.95
2023-01-13T12:08:52.463Z,2.44
2023-01-13T12:09:56.030Z,2.30
2023-01-13T12:10:53.388Z,2.09
2023-01-13T12:12:09.231Z,2.01
2023-01-13T12:13:06.510Z,2.29
2023-01-13T12:14:06.827Z,2.06
2023-01-13T12:15:04.105Z,2.33
2023-01-13T12:16:16.554Z,2.12
2023-01-13T12:17:27.413Z,2.12
2023-01-13T12:18:50.969Z,2.34
2023-01-13T12:19:50.794Z,2.40
2023-01-13T12:21:01.416Z,2.22
2023-01-13T12:22:09.169Z,1.80
2023-01-13T12:23:12.607Z,2.01
2023-01-13T12:24:18.882Z,2.06
2023-01-13T12:25:16.154Z,2.43
2023-01-13T12:26:16.201Z,2.22
2023-01-13T12:27:19.513Z,2.35
2023-01-13T12:28:21.121Z,2.42
2023-01-13T12:29:19.907Z,2.45
2023-01-13T12:30:30.646Z,2.37
2023-01-13T12:31:29.029Z,2.15
2023-01-13T12:32:38.854Z,2.03
2023-01-13T12:33:54.607Z,2.22
2023-01-13T12:35:05.139Z,2.42
2023-01-13T12:36:10.964Z,2.40
2023-01-13T12:37:11.162Z,2.22
2023-01-13T12:38:37.947Z,2.61
2023-01-13T12:39:44.047Z,3.83
2023-01-13T12:40:48.102Z,4.46
2023-01-13T12:42:18.915Z,4.22
2023-01-13T12:43:39.225Z,4.94
2023-01-13T12:44:36.536Z,4.71
2023-01-13T12:45:34.196Z,5.17
2023-01-13T12:46:31.497Z,5.58
2023-01-13T12:47:37.162Z,5.99
2023-01-13T12:48:57.128Z,6.05
2023-01-13T12:50:14.461Z,7.15
2023-01-13T12:51:22.522Z,6.99
2023-01-13T12:52:20.136Z,7.50
2023-01-13T12:53:34.140Z,7.28
2023-01-13T12:54:54.528Z,8.19
2023-01-13T12:55:53.157Z,7.56
2023-01-13T12:56:50.585Z,7.63
2023-01-13T12:58:02.974Z,7.68
2023-01-13T12:59:21.553Z,7.53
2023-01-13T13:00:19.170Z,7.49
2023-01-13T13:01:17.314Z,7.05
2023-01-13T13:02:18.061Z,7.27
2023-01-13T13:03:23.571Z,7.18
2023-01-13T13:04:41.507Z,6.99
2023-01-13T13:06:01.134Z,7.03
2023-01-13T13:07:10.367Z,6.87
2023-01-13T13:08:21.151Z,7.26
2023-01-13T13:09:21.318Z,7.82
2023-01-13T13:10:24.641Z,8.23
2023-01-13T13:12:00.677Z,7.52
2023-01-13T13:13:19.970Z,8.16
2023-01-13T13:14:37.325Z,8.65
2023-01-13T13:15:36.367Z,9.75
2023-01-13T13:16:45.247Z,10.18
2023-01-13T13:17:44.450Z,9.35
2023-01-13T13:18:41.768Z,9.20
2023-01-13T13:19:39.104Z,9.21
2023-01-13T13:20:54.908Z,9.28
2023-01-13T13:22:10.699Z,8.78
2023-01-13T13:23:26.798Z,9.28
2023-01-13T13:24:26.116Z,9.44
2023-01-13T13:25:24.621Z,9.15
2023-01-13T13:26:22.166Z,8.90
2023-01-13T13:27:31.550Z,8.54
2023-01-13T13:28:36.046Z,8.07
2023-01-13T13:29:42.399Z,8.20
2023-01-13T13:30:45.335Z,8.35
2023-01-13T13:32:01.160Z,7.78
2023-01-13T13:33:01.214Z,7.75
2023-01-13T13:34:10.145Z,8.08
2023-01-13T13:35:13.320Z,8.63
2023-01-13T13:36:30.894Z,7.76
2023-01-13T13:38:04.924Z,8.56
2023-01-13T13:39:43.572Z,8.30
2023-01-13T13:41:02.975Z,8.93
2023-01-13T13:42:30.282Z,9.63
2023-01-13T13:43:49.647Z,9.91
2023-01-13T13:45:08.314Z,10.15
2023-01-13T13:46:41.735Z,10.42
2023-01-13T13:47:39.570Z,10.76
2023-01-13T13:48:37.350Z,10.99
2023-01-13T13:49:42.404Z,10.70
2023-01-13T13:50:47.119Z,11.21
2023-01-13T13:52:04.775Z,11.27